Time;durP1;ratioP1;P1;durP2;ratioP2;P2;SDS_P1;SDS_P2;PMS_P1;PMS_P2;Temp;Humidity;BMP_temperature;BMP_pressure;BME280_temperature;BME280_humidity;BME280_pressure;Samples;Min_cycle;Max_cycle;Signal;HPM_P1;HPM_P2
2022/04/11 00:01:21;;;;;;;6.03;4.60;;;;;;;4.16;100.00;61250.63;5091526;28;20621;-73
2022/04/11 00:03:48;;;;;;;10.73;4.83;;;;;;;4.10;100.00;61241.19;5092039;28;20488;-71
2022/04/11 00:06:14;;;;;;;6.60;4.60;;;;;;;4.16;100.00;61255.66;5091811;28;20437;-72
2022/04/11 00:08:41;;;;;;;5.93;4.03;;;;;;;4.26;100.00;61261.25;5091802;28;20430;-72
2022/04/11 00:11:08;;;;;;;8.53;5.00;;;;;;;3.67;100.00;61198.47;5091934;28;20936;-73
2022/04/11 00:13:36;;;;;;;7.53;4.33;;;;;;;4.12;100.00;61246.38;5091643;28;20461;-71
2022/04/11 00:16:03;;;;;;;9.47;5.00;;;;;;;4.18;100.00;61252.75;5091898;28;20483;-72
2022/04/11 00:18:30;;;;;;;7.87;4.40;;;;;;;4.28;100.00;61263.38;5092046;28;20495;-72
2022/04/11 00:20:56;;;;;;;6.37;4.20;;;;;;;4.25;100.00;61257.13;5091887;28;20473;-71
2022/04/11 00:23:23;;;;;;;7.67;4.63;;;;;;;4.30;100.00;61259.94;5092224;28;20426;-72
2022/04/11 00:25:50;;;;;;;6.93;4.80;;;;;;;4.36;100.00;61270.81;5092104;28;20450;-73
2022/04/11 00:28:17;;;;;;;6.87;4.37;;;;;;;4.39;100.00;61274.03;5092147;28;20461;-72
2022/04/11 00:30:45;;;;;;;7.00;4.53;;;;;;;4.41;100.00;61276.69;5091600;28;20495;-73
2022/04/11 00:33:12;;;;;;;8.73;4.70;;;;;;;4.22;100.00;61257.00;5092235;28;20472;-72
2022/04/11 00:35:38;;;;;;;6.87;4.80;;;;;;;4.34;100.00;61268.69;5091597;28;20437;-71
2022/04/11 00:38:05;;;;;;;7.07;5.17;;;;;;;4.06;100.00;61247.53;5091733;28;20494;-72
2022/04/11 00:40:32;;;;;;;12.67;4.80;;;;;;;4.45;100.00;61280.94;5091777;28;20527;-72
2022/04/11 00:42:59;;;;;;;7.80;4.53;;;;;;;4.35;100.00;61274.81;5091602;28;20441;-72
2022/04/11 00:45:26;;;;;;;5.77;4.50;;;;;;;4.42;100.00;61280.28;5091698;28;20441;-72
2022/04/11 00:47:54;;;;;;;8.60;4.63;;;;;;;4.54;100.00;61290.00;5091764;28;20438;-72
2022/04/11 00:50:21;;;;;;;6.77;4.97;;;;;;;4.44;100.00;61279.34;5091617;28;20502;-72
2022/04/11 00:52:50;;;;;;;6.43;4.30;;;;;;;4.54;100.00;61290.00;5091751;28;20438;-74
2022/04/11 00:55:21;;;;;;;7.23;4.60;;;;;;;4.12;100.00;61246.38;5091417;28;20453;-71
2022/04/11 00:57:48;;;;;;;6.10;4.20;;;;;;;4.41;100.00;61271.13;5091289;28;20441;-72
2022/04/11 01:00:16;;;;;;;6.20;4.53;;;;;;;4.51;100.00;61286.81;5091194;28;20450;-72
2022/04/11 01:02:42;;;;;;;6.00;4.40;;;;;;;4.68;100.00;61305.44;5091458;28;20862;-72
2022/04/11 01:05:12;;;;;;;9.97;4.03;;;;;;;4.73;100.00;61310.22;5091694;28;20490;-71
2022/04/11 01:07:41;;;;;;;8.63;4.30;;;;;;;4.31;100.00;61261.00;5091328;28;20449;-72
2022/04/11 01:10:10;;;;;;;6.10;4.33;;;;;;;4.68;100.00;61304.91;5091404;28;20437;-72
2022/04/11 01:12:36;;;;;;;6.87;4.33;;;;;;;4.70;100.00;61307.56;5095414;28;20610;-71
2022/04/11 01:15:04;;;;;;;5.97;3.87;;;;;;;4.83;100.00;61320.88;5094861;28;20487;-72
2022/04/11 01:17:34;;;;;;;5.83;3.60;;;;;;;4.87;100.00;61325.13;5094800;28;20437;-71
2022/04/11 01:20:07;;;;;;;5.50;3.90;;;;;;;4.91;100.00;61329.41;5095732;28;20442;-72
2022/04/11 01:22:35;;;;;;;6.80;4.03;;;;;;;4.87;100.00;61325.13;5094879;28;20510;-72
2022/04/11 01:25:03;;;;;;;5.47;4.03;;;;;;;4.84;100.00;61324.47;5095233;28;20438;-72
2022/04/11 01:27:31;;;;;;;5.93;3.07;;;;;;;4.82;100.00;61319.81;5094636;28;20494;-70
2022/04/11 01:29:58;;;;;;;7.23;3.80;;;;;;;4.84;100.00;61321.94;5094736;28;20540;-72
2022/04/11 01:32:25;;;;;;;5.00;3.50;;;;;;;4.86;100.00;61324.06;5094642;28;20498;-71
2022/04/11 01:34:51;;;;;;;5.53;3.83;;;;;;;4.79;100.00;61316.63;5094400;28;20477;-71
2022/04/11 01:37:18;;;;;;;5.33;3.40;;;;;;;4.65;100.00;61299.19;5094839;28;20804;-71
2022/04/11 01:39:46;;;;;;;6.07;3.70;;;;;;;4.66;100.00;61302.78;5094797;28;20441;-72
2022/04/11 01:42:13;;;;;;;3.53;3.10;;;;;;;4.68;100.00;61304.91;5094556;28;20481;-73
2022/04/11 01:44:40;;;;;;;4.77;3.40;;;;;;;4.74;100.00;61308.75;5094657;28;20444;-72
2022/04/11 01:47:08;;;;;;;5.70;3.13;;;;;;;4.78;100.00;61315.53;5094380;28;20498;-71
2022/04/11 01:49:35;;;;;;;4.10;3.00;;;;;;;4.68;100.00;61304.91;5094338;28;20487;-71
2022/04/11 01:52:02;;;;;;;6.30;3.00;;;;;;;4.69;100.00;61305.97;5095013;28;20446;-73
2022/04/11 01:54:28;;;;;;;4.80;3.10;;;;;;;4.51;100.00;61289.84;5094109;28;20438;-73
2022/04/11 01:56:56;;;;;;;6.70;3.40;;;;;;;4.76;100.00;61313.94;5094160;28;20510;-71
2022/04/11 01:59:23;;;;;;;5.53;3.40;;;;;;;4.69;100.00;61300.94;5094148;28;20430;-72
2022/04/11 02:01:50;;;;;;;5.40;3.17;;;;;;;4.67;100.00;61304.34;5094184;28;20589;-71
2022/04/11 02:04:17;;;;;;;6.57;2.97;;;;;;;4.78;100.00;61315.53;5094263;28;20952;-72
2022/04/11 02:06:43;;;;;;;5.07;2.73;;;;;;;4.86;100.00;61321.53;5094390;28;20502;-72
2022/04/11 02:09:11;;;;;;;3.23;2.63;;;;;;;4.85;100.00;61320.50;5094197;28;20438;-72
2022/04/11 02:11:37;;;;;;;4.80;2.80;;;;;;;4.81;100.00;61316.22;5093882;28;20997;-71
2022/04/11 02:14:06;;;;;;;6.33;3.13;;;;;;;4.81;100.00;61319.28;5093844;28;20449;-71
2022/04/11 02:16:33;;;;;;;3.60;2.73;;;;;;;4.75;100.00;61310.34;5093920;28;20506;-72
2022/04/11 02:19:00;;;;;;;4.77;3.50;;;;;;;4.90;100.00;61328.88;5093516;28;20503;-71
2022/04/11 02:21:26;;;;;;;3.77;3.03;;;;;;;4.89;100.00;61325.25;5094038;28;20587;-72
2022/04/11 02:23:53;;;;;;;3.83;2.87;;;;;;;4.37;100.00;61271.91;5093011;28;20437;-71
2022/04/11 02:26:20;;;;;;;5.33;2.70;;;;;;;4.35;100.00;61269.78;5093508;28;20495;-71
2022/04/11 02:28:47;;;;;;;7.23;2.77;;;;;;;4.78;100.00;61313.56;5093800;28;20499;-71
2022/04/11 02:31:15;;;;;;;3.83;2.97;;;;;;;4.82;100.00;61322.34;5093509;28;20441;-72
2022/04/11 02:33:42;;;;;;;4.40;2.40;;;;;;;4.80;100.00;61317.69;5093427;28;20473;-72
2022/04/11 02:36:09;;;;;;;5.40;2.33;;;;;;;4.69;100.00;61305.97;5093978;28;20815;-71
2022/04/11 02:38:36;;;;;;;4.97;3.10;;;;;;;4.87;100.00;61325.13;5093096;28;20514;-71
2022/04/11 02:41:03;;;;;;;3.83;2.60;;;;;;;4.78;100.00;61315.53;5093426;28;20485;-72
2022/04/11 02:43:29;;;;;;;2.87;2.47;;;;;;;4.66;100.00;61302.78;5093239;28;20441;-71
2022/04/11 02:45:56;;;;;;;4.73;2.70;;;;;;;4.67;100.00;61304.34;5093280;28;20571;-72
2022/04/11 02:48:24;;;;;;;3.47;2.50;;;;;;;4.70;100.00;61307.03;5093204;28;20928;-72
2022/04/11 02:50:52;;;;;;;4.10;2.70;;;;;;;4.74;100.00;61311.28;5093096;28;20434;-72
2022/04/11 02:53:20;;;;;;;5.13;3.00;;;;;;;4.59;100.00;61295.84;5093408;28;20446;-72
2022/04/11 02:55:47;;;;;;;5.57;3.10;;;;;;;4.68;100.00;61309.94;5093267;28;20445;-71
2022/04/11 02:58:15;;;;;;;5.43;3.17;;;;;;;4.38;100.00;61272.97;5092989;28;20433;-71
2022/04/11 03:00:41;;;;;;;3.57;3.00;;;;;;;4.38;100.00;61272.97;5093007;28;20430;-71
2022/04/11 03:03:10;;;;;;;4.13;3.00;;;;;;;4.31;100.00;61261.00;5093947;28;20499;-72
2022/04/11 03:05:38;;;;;;;5.93;2.87;;;;;;;4.43;100.00;61278.28;5093150;28;20453;-72
2022/04/11 03:08:05;;;;;;;5.33;3.33;;;;;;;4.38;100.00;61270.44;5093461;28;20794;-71
2022/04/11 03:10:32;;;;;;;3.73;3.00;;;;;;;4.38;100.00;61270.97;5092927;28;20448;-71
2022/04/11 03:12:58;;;;;;;5.10;3.00;;;;;;;4.51;100.00;61294.88;5092847;28;20554;-72
2022/04/11 03:15:25;;;;;;;3.90;2.90;;;;;;;4.56;100.00;61292.13;5093412;28;20434;-71
2022/04/11 03:17:52;;;;;;;7.10;2.77;;;;;;;4.55;100.00;61291.06;5093122;28;20460;-71
2022/04/11 03:20:19;;;;;;;3.50;2.97;;;;;;;4.46;100.00;61276.44;5092749;28;20446;-73
2022/04/11 03:22:48;;;;;;;3.50;2.90;;;;;;;4.57;100.00;61293.19;5091298;28;21014;-72
2022/04/11 03:25:16;;;;;;;4.40;3.00;;;;;;;4.66;100.00;61303.31;5092492;28;20483;-71
2022/04/11 03:27:43;;;;;;;5.73;3.20;;;;;;;4.79;100.00;61314.09;5093122;28;20434;-72
2022/04/11 03:30:11;;;;;;;3.90;3.20;;;;;;;4.75;100.00;61315.41;5092807;28;20437;-71
2022/04/11 03:32:38;;;;;;;4.63;3.17;;;;;;;4.07;100.00;61246.06;5092280;28;21013;-72
2022/04/11 03:35:05;;;;;;;4.70;3.13;;;;;;;4.31;100.00;61263.00;5092497;28;20473;-71
2022/04/11 03:37:32;;;;;;;4.00;3.03;;;;;;;5.01;100.00;61340.06;5092223;28;20464;-72
2022/04/11 03:40:00;;;;;;;3.40;2.77;;;;;;;5.10;100.00;61349.63;5092310;28;20510;-70
2022/04/11 03:42:27;;;;;;;3.93;3.37;;;;;;;4.93;100.00;61329.00;5092531;28;21095;-71
2022/04/11 03:44:54;;;;;;;4.93;3.60;;;;;;;4.91;100.00;61329.91;5092776;28;20442;-72
2022/04/11 03:47:22;;;;;;;3.93;3.33;;;;;;;4.95;100.00;61331.13;5092322;28;20442;-71
2022/04/11 03:49:48;;;;;;;5.97;4.07;;;;;;;4.90;100.00;61328.31;5092180;28;20997;-72
2022/04/11 03:52:15;;;;;;;4.67;3.23;;;;;;;4.97;100.00;61338.31;5092210;28;20442;-72
2022/04/11 03:54:42;;;;;;;4.77;3.23;;;;;;;4.46;100.00;61281.47;5092101;28;21029;-73
2022/04/11 03:57:10;;;;;;;4.53;3.10;;;;;;;5.11;100.00;61350.72;5092238;28;20507;-73
2022/04/11 03:59:38;;;;;;;3.97;2.73;;;;;;;4.91;100.00;61329.41;5092013;28;20464;-74
2022/04/11 04:02:05;;;;;;;7.43;3.10;;;;;;;4.97;100.00;61330.75;5091994;28;20477;-72
2022/04/11 04:04:32;;;;;;;4.97;3.43;;;;;;;4.37;100.00;61272.41;5092166;27;20970;-73
2022/04/11 04:06:59;;;;;;;4.97;3.53;;;;;;;5.05;100.00;61344.31;5091918;28;20514;-72
2022/04/11 04:09:25;;;;;;;6.03;3.60;;;;;;;4.98;100.00;61337.38;5091681;28;20518;-72
2022/04/11 04:11:52;;;;;;;5.57;3.30;;;;;;;4.96;100.00;61334.72;5092442;28;20499;-72
2022/04/11 04:14:21;;;;;;;4.20;3.47;;;;;;;5.02;100.00;61343.63;5091608;28;20979;-72
2022/04/11 04:16:49;;;;;;;3.87;2.87;;;;;;;4.54;100.00;61290.53;5091967;28;20442;-71
2022/04/11 04:19:15;;;;;;;7.33;3.60;;;;;;;5.02;100.00;61336.59;5091955;28;20444;-71
2022/04/11 04:21:43;;;;;;;4.57;3.50;;;;;;;5.07;100.00;61341.41;5091598;28;20469;-71
2022/04/11 04:24:10;;;;;;;7.53;3.43;;;;;;;4.80;100.00;61318.22;5091713;28;20486;-71
2022/04/11 04:26:37;;;;;;;5.27;3.30;;;;;;;4.82;100.00;61319.81;5091445;28;20442;-71
2022/04/11 04:29:03;;;;;;;7.67;4.10;;;;;;;5.06;100.00;61345.91;5091498;28;20495;-70
2022/04/11 04:31:32;;;;;;;4.90;3.77;;;;;;;5.17;100.00;61356.56;5091942;28;20499;-72
2022/04/11 04:33:59;;;;;;;6.43;3.43;;;;;;;5.03;100.00;61342.19;5091567;28;20470;-73
2022/04/11 04:36:25;;;;;;;7.40;3.70;;;;;;;4.96;100.00;61334.72;5091804;28;20437;-70
2022/04/11 04:38:52;;;;;;;7.10;4.33;;;;;;;4.91;100.00;61327.41;5092064;28;20438;-71
2022/04/11 04:41:19;;;;;;;7.37;3.87;;;;;;;4.86;100.00;61324.06;5091587;28;20434;-72
2022/04/11 04:43:46;;;;;;;8.63;4.00;;;;;;;4.84;100.00;61321.94;5091449;28;20429;-71
2022/04/11 04:46:13;;;;;;;5.67;3.43;;;;;;;4.93;100.00;61331.53;5093240;28;20510;-71
2022/04/11 04:48:42;;;;;;;7.87;4.10;;;;;;;4.89;100.00;61327.28;5094954;28;20433;-72
2022/04/11 04:51:10;;;;;;;6.33;4.17;;;;;;;4.86;100.00;61324.06;5095714;28;20442;-72
2022/04/11 04:53:37;;;;;;;5.93;4.40;;;;;;;4.97;100.00;61330.75;5095167;28;20948;-72
2022/04/11 04:56:04;;;;;;;5.90;3.90;;;;;;;4.90;100.00;61323.81;5095307;28;20438;-72
2022/04/11 04:58:31;;;;;;;7.53;4.17;;;;;;;4.48;100.00;61283.59;5095155;28;20429;-71
2022/04/11 05:00:58;;;;;;;10.93;5.40;;;;;;;5.09;100.00;61349.09;5094827;28;20456;-72
2022/04/11 05:03:25;;;;;;;9.33;6.10;;;;;;;5.01;100.00;61335.00;5095309;28;20911;-72
2022/04/11 05:05:54;;;;;;;9.20;6.47;;;;;;;5.05;100.00;61344.81;5094940;28;20494;-71
2022/04/11 05:08:21;;;;;;;8.73;5.60;;;;;;;5.02;100.00;61341.66;5094929;28;20436;-73
2022/04/11 05:10:48;;;;;;;8.47;4.90;;;;;;;4.92;100.00;61331.00;5094495;28;20940;-72
2022/04/11 05:13:14;;;;;;;10.70;5.23;;;;;;;5.01;100.00;61338.03;5094848;28;20461;-70
2022/04/11 05:15:42;;;;;;;9.30;5.90;;;;;;;4.83;100.00;61320.88;5094916;28;20434;-73
2022/04/11 05:18:09;;;;;;;7.80;5.10;;;;;;;4.80;100.00;61318.22;5094636;28;20451;-72
2022/04/11 05:20:36;;;;;;;8.37;5.13;;;;;;;4.72;100.00;61307.16;5094901;28;20448;-72
2022/04/11 05:23:04;;;;;;;8.83;4.60;;;;;;;4.63;100.00;61299.59;5094709;28;20573;-72
2022/04/11 05:25:30;;;;;;;7.70;4.57;;;;;;;4.77;100.00;61311.97;5094695;28;20440;-72
2022/04/11 05:27:58;;;;;;;7.80;4.83;;;;;;;4.76;100.00;61313.41;5095310;28;20813;-71
2022/04/11 05:30:24;;;;;;;8.13;4.70;;;;;;;4.74;100.00;61311.28;5094745;28;20440;-71
2022/04/11 05:32:51;;;;;;;7.00;4.50;;;;;;;4.85;100.00;61323.00;5095067;28;20437;-72
2022/04/11 05:35:18;;;;;;;9.10;5.10;;;;;;;4.23;100.00;61258.06;5094855;28;20936;-72
2022/04/11 05:37:45;;;;;;;10.80;5.00;;;;;;;4.80;100.00;61318.22;5094589;28;20948;-72
2022/04/11 05:40:14;;;;;;;9.37;4.83;;;;;;;4.72;100.00;61309.16;5094656;28;20433;-72
2022/04/11 05:42:40;;;;;;;7.03;4.37;;;;;;;4.73;100.00;61310.75;5094375;28;20849;-71
2022/04/11 05:45:08;;;;;;;9.53;4.60;;;;;;;4.73;100.00;61302.66;5095010;28;20452;-71
2022/04/11 05:47:35;;;;;;;11.53;4.80;;;;;;;4.84;100.00;61321.94;5094479;28;20495;-71
2022/04/11 05:50:02;;;;;;;17.97;6.63;;;;;;;4.06;100.00;61239.44;5094290;28;20441;-72
2022/04/11 05:52:28;;;;;;;7.93;4.80;;;;;;;4.81;100.00;61318.75;5094035;28;20453;-72
2022/04/11 05:54:55;;;;;;;10.23;5.70;;;;;;;4.68;100.00;61305.44;5094650;28;20437;-73
2022/04/11 05:57:23;;;;;;;12.03;5.13;;;;;;;4.95;100.00;61333.66;5092803;28;20442;-71
2022/04/11 05:59:50;;;;;;;9.53;5.37;;;;;;;4.99;100.00;61340.44;5093884;28;20437;-71
2022/04/11 06:02:16;;;;;;;6.60;4.67;;;;;;;4.89;100.00;61324.75;5094017;28;20569;-71
2022/04/11 06:04:43;;;;;;;7.93;4.93;;;;;;;4.94;100.00;61330.06;5094484;28;20503;-72
2022/04/11 06:07:10;;;;;;;8.03;4.67;;;;;;;5.00;100.00;61338.97;5093721;28;20503;-71
2022/04/11 06:09:37;;;;;;;9.70;4.60;;;;;;;5.17;100.00;61356.56;5093914;28;20847;-72
2022/04/11 06:12:04;;;;;;;9.50;4.87;;;;;;;5.01;100.00;61340.06;5093867;28;20434;-73
2022/04/11 06:14:32;;;;;;;9.47;5.07;;;;;;;5.11;100.00;61353.22;5092530;28;20457;-71
2022/04/11 06:16:59;;;;;;;7.70;4.83;;;;;;;4.98;100.00;61337.38;5093867;28;20434;-72
2022/04/11 06:19:26;;;;;;;9.07;5.00;;;;;;;5.04;100.00;61340.72;5093743;28;20453;-71
2022/04/11 06:21:52;;;;;;;4.57;3.70;;;;;;;4.96;100.00;61334.72;5093707;28;20434;-71
2022/04/11 06:24:19;;;;;;;7.57;4.10;;;;;;;4.94;100.00;61330.06;5093815;28;20948;-71
2022/04/11 06:26:46;;;;;;;8.40;4.87;;;;;;;5.06;100.00;61345.38;5093519;28;20944;-71
2022/04/11 06:29:13;;;;;;;8.43;4.47;;;;;;;5.01;100.00;61340.06;5093479;28;20430;-70
2022/04/11 06:31:41;;;;;;;7.23;4.67;;;;;;;4.92;100.00;61330.47;5093224;28;20465;-71
2022/04/11 06:34:07;;;;;;;14.60;5.27;;;;;;;4.95;100.00;61334.19;5093342;28;20474;-71
2022/04/11 06:36:34;;;;;;;13.17;5.10;;;;;;;5.04;100.00;61343.25;5093326;28;20499;-73
2022/04/11 06:39:01;;;;;;;7.53;5.00;;;;;;;4.98;100.00;61336.84;5093278;28;20446;-72
2022/04/11 06:41:27;;;;;;;7.30;4.73;;;;;;;5.09;100.00;61343.53;5094091;28;20881;-71
2022/04/11 06:43:54;;;;;;;8.47;4.97;;;;;;;5.32;100.00;61370.53;5093274;28;20562;-71
2022/04/11 06:46:21;;;;;;;9.57;4.87;;;;;;;5.53;100.00;61392.94;5094756;28;20947;-71
2022/04/11 06:48:49;;;;;;;13.37;4.80;;;;;;;5.62;100.00;61407.56;5096755;28;20430;-71
2022/04/11 06:51:16;;;;;;;9.30;5.00;;;;;;;5.91;100.00;61435.97;5093305;28;20824;-72
2022/04/11 06:53:42;;;;;;;12.33;5.37;;;;;;;6.15;100.00;61455.44;5093804;28;20445;-71
2022/04/11 06:56:09;;;;;;;9.20;4.63;;;;;;;6.24;100.00;61470.09;5093462;28;20442;-71
2022/04/11 06:58:36;;;;;;;6.27;4.07;;;;;;;5.65;100.00;61408.25;5092932;28;20499;-72
2022/04/11 07:01:04;;;;;;;8.90;5.17;;;;;;;6.53;100.00;61498.50;5093059;28;20430;-71
2022/04/11 07:03:32;;;;;;;12.03;5.80;;;;;;;6.93;100.00;61543.72;5092903;28;20473;-72
2022/04/11 07:06:00;;;;;;;6.73;5.07;;;;;;;7.29;100.00;61582.13;5092914;28;20473;-71
2022/04/11 07:08:27;;;;;;;12.33;4.70;;;;;;;7.46;100.00;61597.78;5092708;28;20495;-73
2022/04/11 07:10:54;;;;;;;8.63;3.97;;;;;;;7.50;100.00;61604.56;5092679;28;20498;-72
2022/04/11 07:13:20;;;;;;;7.97;3.93;;;;;;;7.27;100.00;61582.53;5092642;28;21069;-70
2022/04/11 07:15:47;;;;;;;7.80;4.60;;;;;;;7.39;100.00;61589.75;5093135;28;20495;-71
2022/04/11 07:18:14;;;;;;;9.03;4.47;;;;;;;7.52;100.00;61604.19;5092909;28;20446;-73
2022/04/11 07:20:40;;;;;;;7.23;4.63;;;;;;;7.72;100.00;61629.53;5092296;28;20640;-70
2022/04/11 07:23:08;;;;;;;9.90;4.57;;;;;;;7.99;100.00;61655.84;5092369;28;21003;-70
2022/04/11 07:25:35;;;;;;;6.90;4.33;;;;;;;7.95;100.00;61651.56;5092328;28;20437;-71
2022/04/11 07:28:02;;;;;;;8.80;3.83;;;;;;;8.18;100.00;61676.16;5092253;28;20824;-71
2022/04/11 07:30:28;;;;;;;7.93;3.90;;;;;;;8.37;100.00;61699.03;5092494;28;20429;-70
2022/04/11 07:32:56;;;;;;;8.97;4.43;;;;;;;8.54;100.00;61714.66;5092189;28;20518;-71
2022/04/11 07:35:22;;;;;;;9.13;4.57;;;;;;;8.93;100.00;61755.81;5092871;28;20438;-72
2022/04/11 07:37:49;;;;;;;6.93;4.00;;;;;;;9.01;100.00;61766.91;5092464;28;20438;-71
2022/04/11 07:40:17;;;;;;;8.43;4.40;;;;;;;8.88;100.00;61753.53;5092061;28;20434;-70
2022/04/11 07:42:45;;;;;;;5.67;3.63;;;;;;;9.06;100.00;61767.16;5092261;28;20473;-72
2022/04/11 07:45:12;;;;;;;7.57;4.03;;;;;;;9.40;100.00;61805.56;5092055;28;20487;-70
2022/04/11 07:47:39;;;;;;;7.67;4.40;;;;;;;9.50;100.00;61816.25;5092009;28;20461;-72
2022/04/11 07:50:07;;;;;;;4.10;3.60;;;;;;;9.82;100.00;61850.50;5092037;28;20548;-72
2022/04/11 07:52:38;;;;;;;6.37;4.00;;;;;;;9.76;100.00;61849.69;5091485;28;20441;-73
2022/04/11 07:55:06;;;;;;;8.33;4.13;;;;;;;9.69;100.00;61836.59;5091184;28;20196;-71
2022/04/11 07:57:34;;;;;;;5.87;4.17;;;;;;;9.61;100.00;61828.03;5090942;28;20446;-71
2022/04/11 08:00:01;;;;;;;11.40;5.33;;;;;;;9.09;100.00;61773.47;5091187;28;20475;-73
2022/04/11 08:02:28;;;;;;;5.17;3.60;;;;;;;8.85;100.00;61752.34;5090870;28;20737;-72
2022/04/11 08:04:55;;;;;;;6.77;4.53;;;;;;;8.20;100.00;61673.22;5091624;28;20441;-73
2022/04/11 08:07:22;;;;;;;10.37;4.37;;;;;;;8.55;100.00;61715.19;5090765;28;20503;-70
2022/04/11 08:09:50;;;;;;;7.20;4.13;;;;;;;9.04;100.00;61770.13;5091056;28;20537;-71
2022/04/11 08:12:18;;;;;;;5.63;4.10;;;;;;;9.10;100.00;61774.53;5090957;28;20433;-71
2022/04/11 08:14:46;;;;;;;9.03;3.60;;;;;;;8.92;100.00;61755.28;5090943;28;20503;-70
2022/04/11 08:17:13;;;;;;;5.50;3.30;;;;;;;8.78;100.00;61740.31;5090779;28;20441;-71
2022/04/11 08:19:40;;;;;;;6.03;4.33;;;;;;;9.06;100.00;61770.25;5090971;28;20549;-71
2022/04/11 08:22:07;;;;;;;4.93;3.73;;;;;;;9.26;100.00;61791.09;5093919;28;20507;-71
2022/04/11 08:24:34;;;;;;;6.83;3.97;;;;;;;9.04;100.00;61768.13;5094507;28;20489;-71
2022/04/11 08:27:02;;;;;;;7.03;3.70;;;;;;;9.04;100.00;61770.66;5093604;28;20457;-70
2022/04/11 08:29:29;;;;;;;6.23;3.90;;;;;;;9.35;100.00;61806.38;5094464;28;20483;-73
2022/04/11 08:31:57;;;;;;;8.47;4.03;;;;;;;9.91;100.00;61860.13;5094504;28;20449;-73
2022/04/11 08:34:23;;;;;;;4.63;3.13;;;;;;;9.93;100.00;61870.44;5094948;28;20288;-72
2022/04/11 08:36:50;;;;;;;5.27;3.60;;;;;;;9.38;100.00;61809.03;5094352;28;20948;-71
2022/04/11 08:39:18;;;;;;;4.27;3.27;;;;;;;10.05;100.00;61875.66;5094351;28;20445;-71
2022/04/11 08:41:45;;;;;;;5.40;3.37;;;;;;;9.58;100.00;61824.81;5094624;28;20192;-72
2022/04/11 08:44:13;;;;;;;8.40;3.53;;;;;;;9.92;100.00;61863.75;5094499;28;20986;-72
2022/04/11 08:46:41;;;;;;;6.70;4.10;;;;;;;9.90;100.00;61859.59;5094872;28;20199;-72
2022/04/11 08:49:09;;;;;;;7.97;3.83;;;;;;;9.98;100.00;61863.06;5094447;28;20511;-72
2022/04/11 08:51:37;;;;;;;4.50;3.63;;;;;;;9.99;100.00;61866.16;5094931;28;20437;-71
2022/04/11 08:54:05;;;;;;;6.50;4.10;;;;;;;9.90;100.00;61859.06;5094230;28;20453;-72
2022/04/11 08:56:33;;;;;;;8.17;4.00;;;;;;;9.88;100.00;61862.03;5094393;28;20457;-72
2022/04/11 08:59:00;;;;;;;8.27;3.43;;;;;;;8.86;100.00;61745.78;5094670;28;20943;-71
2022/04/11 09:01:26;;;;;;;9.10;4.00;;;;;;;9.20;100.00;61785.22;5094315;28;20810;-73
2022/04/11 09:03:53;;;;;;;8.53;4.37;;;;;;;9.16;100.00;61780.94;5094114;28;20608;-71
2022/04/11 09:06:24;;;;;;;10.10;4.23;;;;;;;9.00;100.00;61758.22;5094119;28;20502;-72
2022/04/11 09:08:52;;;;;;;11.50;4.47;;;;;;;8.99;100.00;61762.78;5094038;28;20459;-71
2022/04/11 09:11:34;;;;;;;14.00;4.20;;;;;;;9.51;100.00;61817.31;5093950;28;20598;-71
2022/04/11 09:14:03;;;;;;;6.43;4.10;;;;;;;8.96;100.00;61753.94;5094288;28;20484;-73
2022/04/11 09:16:43;;;;;;;6.93;3.63;;;;;;;8.99;100.00;61757.69;5093804;28;20870;-71
2022/04/11 09:19:20;;;;;;;8.70;4.33;;;;;;;8.86;100.00;61743.78;5093687;28;20199;-72
2022/04/11 09:21:50;;;;;;;11.40;4.60;;;;;;;8.82;100.00;61739.50;5092269;28;20453;-72
2022/04/11 09:24:19;;;;;;;6.67;4.37;;;;;;;8.99;100.00;61760.22;5093647;28;20484;-71
2022/04/11 09:26:47;;;;;;;7.03;4.10;;;;;;;9.22;100.00;61787.38;5093606;28;20888;-72
2022/04/11 09:29:15;;;;;;;8.53;3.80;;;;;;;8.93;100.00;61756.34;5093579;28;20461;-72
2022/04/11 09:31:43;;;;;;;6.87;3.30;;;;;;;8.07;100.00;61659.31;5092993;28;20434;-72
2022/04/11 09:34:21;;;;;;;4.47;3.80;;;;;;;8.28;100.00;61686.84;5092174;28;20659;-71
2022/04/11 09:36:52;;;;;;;6.03;4.07;;;;;;;8.02;100.00;61659.03;5094495;28;20451;-72
2022/04/11 09:39:22;;;;;;;9.77;4.43;;;;;;;8.69;100.00;61725.63;5093701;28;20437;-72
2022/04/11 09:41:50;;;;;;;5.07;3.40;;;;;;;8.65;100.00;61731.50;5094031;28;20442;-72
2022/04/11 09:44:25;;;;;;;12.10;4.23;;;;;;;8.54;100.00;61712.09;5093234;28;20995;-72
2022/04/11 09:46:53;;;;;;;13.07;4.60;;;;;;;8.42;100.00;61701.81;5093739;28;20438;-71
2022/04/11 09:49:21;;;;;;;9.63;4.37;;;;;;;8.48;100.00;61705.69;5092716;28;20937;-72
2022/04/11 09:52:07;;;;;;;12.17;3.93;;;;;;;8.08;100.00;61662.91;5092648;28;20429;-71
2022/04/11 09:54:35;;;;;;;8.07;4.33;;;;;;;8.63;100.00;61718.66;5093341;28;20480;-72
2022/04/11 09:57:03;;;;;;;14.30;4.60;;;;;;;8.64;100.00;61730.41;5093020;28;20433;-72
2022/04/11 09:59:30;;;;;;;6.50;3.93;;;;;;;8.74;100.00;61736.03;5093178;28;20536;-73
2022/04/11 10:01:58;;;;;;;10.57;3.97;;;;;;;8.92;100.00;61750.19;5092633;28;20453;-72
2022/04/11 10:04:25;;;;;;;9.07;4.13;;;;;;;9.15;100.00;61779.88;5092846;28;20477;-70
2022/04/11 10:06:53;;;;;;;6.33;4.37;;;;;;;9.13;100.00;61777.22;5092812;28;20510;-71
2022/04/11 10:09:23;;;;;;;6.73;4.00;;;;;;;9.42;100.00;61807.72;5092275;28;20565;-71
2022/04/11 10:11:52;;;;;;;9.07;3.77;;;;;;;9.69;100.00;61834.03;5092792;28;20441;-72
2022/04/11 10:14:23;;;;;;;7.00;3.90;;;;;;;10.78;100.00;61948.25;5092935;28;20211;-71
2022/04/11 10:16:52;;;;;;;7.50;4.27;;;;;;;10.83;100.00;61953.59;5092886;28;20290;-72
2022/04/11 10:19:25;;;;;;;8.27;4.07;;;;;;;10.81;100.00;61948.91;5093252;28;20207;-72
2022/04/11 10:21:54;;;;;;;4.17;3.27;;;;;;;10.59;100.00;61932.97;5093109;28;20216;-71
2022/04/11 10:24:33;;;;;;;9.63;3.37;;;;;;;12.02;100.00;62087.78;5093064;28;20235;-70
2022/04/11 10:27:17;;;;;;;3.73;3.03;;;;;;;11.61;100.00;62036.16;5090914;28;20191;-70
2022/04/11 10:29:44;;;;;;;5.37;3.27;;;;;;;11.53;100.00;62030.13;5093150;28;20243;-71
2022/04/11 10:32:13;;;;;;;5.83;3.77;;;;;;;10.95;100.00;61968.47;5093734;28;20257;-71
2022/04/11 10:34:52;;;;;;;4.40;3.43;;;;;;;9.82;100.00;61845.94;5093789;28;20708;-71
2022/04/11 10:37:20;;;;;;;4.23;3.20;;;;;;;10.95;100.00;61971.56;5092621;28;20199;-72
2022/04/11 10:39:50;;;;;;;6.43;3.23;;;;;;;11.51;100.00;62030.53;5092295;28;20196;-73
2022/04/11 10:42:19;;;;;;;3.90;3.10;;;;;;;11.52;100.00;62031.59;5092277;28;20665;-72
2022/04/11 10:44:48;;;;;;;5.70;3.50;;;;;;;11.57;100.00;62036.97;5091647;28;20227;-72
2022/04/11 10:47:34;;;;;;;4.97;3.57;;;;;;;10.78;100.00;61950.81;5092341;28;20240;-71
2022/04/11 10:50:26;;;;;;;5.83;3.73;;;;;;;11.07;100.00;61983.34;5092273;28;20211;-72
2022/04/11 10:53:06;;;;;;;5.47;3.83;;;;;;;10.65;100.00;61939.41;5092526;28;20199;-71
2022/04/11 10:55:34;;;;;;;4.80;3.10;;;;;;;9.83;100.00;61847.03;5092466;28;20191;-72
2022/04/11 10:58:03;;;;;;;8.60;3.97;;;;;;;9.72;100.00;61837.25;5092045;28;20212;-71
2022/04/11 11:00:31;;;;;;;4.43;3.77;;;;;;;9.40;100.00;61805.56;5092121;28;20867;-71
2022/04/11 11:03:10;;;;;;;6.77;4.23;;;;;;;9.29;100.00;61794.31;5091819;28;20261;-71
2022/04/11 11:05:39;;;;;;;4.80;3.93;;;;;;;9.31;100.00;61797.00;5091915;28;20521;-73
2022/04/11 11:08:25;;;;;;;10.17;3.67;;;;;;;9.41;100.00;61807.16;5091839;28;20521;-72
2022/04/11 11:10:56;;;;;;;10.93;3.80;;;;;;;9.89;100.00;61855.44;5091908;28;20429;-72
2022/04/11 11:13:39;;;;;;;5.93;4.57;;;;;;;10.56;100.00;61931.78;5091903;28;20897;-71
2022/04/11 11:16:58;;;;;;;6.87;3.90;;;;;;;11.57;100.00;62036.97;5092172;28;20446;-71
2022/04/11 11:19:25;;;;;;;5.03;3.50;;;;;;;12.41;100.00;62121.44;5092086;28;20516;-72
2022/04/11 11:22:02;;;;;;;5.30;3.07;;;;;;;11.59;100.00;62034.53;5092207;28;20245;-73
2022/04/11 11:24:29;;;;;;;4.27;3.30;;;;;;;11.77;100.00;62055.88;5091729;28;20223;-71
2022/04/11 11:27:00;;;;;;;4.70;3.30;;;;;;;11.36;100.00;62011.88;5091756;28;20268;-72
2022/04/11 11:29:29;;;;;;;5.97;3.60;;;;;;;11.25;100.00;62002.66;5091732;28;20199;-72
2022/04/11 11:31:58;;;;;;;7.70;3.63;;;;;;;10.97;100.00;61973.69;5092150;28;20195;-72
2022/04/11 11:34:26;;;;;;;4.40;3.87;;;;;;;10.73;100.00;61942.88;5091459;28;20270;-71
2022/04/11 11:36:58;;;;;;;8.13;3.60;;;;;;;9.74;100.00;61844.50;5091605;28;20195;-71